sensor_id;sensor_type;location;lat;lon;timestamp;pressure;altitude;pressure_sealevel;temperature;humidity
4415;BME280;2220;42.670;23.398;2023-07-29T00:01:04;94788.38;;;19.72;100.00
4415;BME280;2220;42.670;23.398;2023-07-29T00:03:30;94794.28;;;19.69;100.00
4415;BME280;2220;42.670;23.398;2023-07-29T00:05:57;94794.75;;;19.63;100.00
4415;BME280;2220;42.670;23.398;2023-07-29T00:08:22;94791.66;;;19.61;100.00
4415;BME280;2220;42.670;23.398;2023-07-29T00:10:48;94789.91;;;19.47;100.00
4415;BME280;2220;42.670;23.398;2023-07-29T00:13:13;94786.16;;;19.48;100.00
4415;BME280;2220;42.670;23.398;2023-07-29T00:15:39;94780.44;;;19.46;100.00
4415;BME280;2220;42.670;23.398;2023-07-29T00:18:04;94793.63;;;19.38;100.00
4415;BME280;2220;42.670;23.398;2023-07-29T00:20:30;94800.13;;;19.32;100.00
4415;BME280;2220;42.670;23.398;2023-07-29T00:22:55;94787.09;;;19.35;100.00
4415;BME280;2220;42.670;23.398;2023-07-29T00:25:22;94761.78;;;19.34;100.00
4415;BME280;2220;42.670;23.398;2023-07-29T00:27:47;94747.63;;;19.13;100.00
4415;BME280;2220;42.670;23.398;2023-07-29T00:30:13;94730.56;;;19.10;100.00
4415;BME280;2220;42.670;23.398;2023-07-29T00:32:38;94724.16;;;18.94;100.00
4415;BME280;2220;42.670;23.398;2023-07-29T00:35:04;94702.69;;;18.69;100.00
4415;BME280;2220;42.670;23.398;2023-07-29T00:37:30;94710.00;;;18.72;100.00
4415;BME280;2220;42.670;23.398;2023-07-29T00:39:56;94704.84;;;18.76;100.00
4415;BME280;2220;42.670;23.398;2023-07-29T00:42:21;94741.31;;;18.65;100.00
4415;BME280;2220;42.670;23.398;2023-07-29T00:44:47;94750.78;;;18.66;100.00
4415;BME280;2220;42.670;23.398;2023-07-29T00:47:15;94751.06;;;18.65;100.00
4415;BME280;2220;42.670;23.398;2023-07-29T00:49:41;94743.41;;;18.46;100.00
4415;BME280;2220;42.670;23.398;2023-07-29T00:52:06;94736.38;;;18.41;100.00
4415;BME280;2220;42.670;23.398;2023-07-29T00:54:32;94733.75;;;18.41;100.00
4415;BME280;2220;42.670;23.398;2023-07-29T00:56:57;94738.25;;;18.41;100.00
4415;BME280;2220;42.670;23.398;2023-07-29T00:59:23;94718.88;;;18.45;100.00
4415;BME280;2220;42.670;23.398;2023-07-29T01:01:48;94710.13;;;18.36;100.00
4415;BME280;2220;42.670;23.398;2023-07-29T01:04:14;94719.44;;;18.34;100.00
4415;BME280;2220;42.670;23.398;2023-07-29T01:07:00;94717.91;;;18.33;100.00
4415;BME280;2220;42.670;23.398;2023-07-29T01:12:47;94698.19;;;18.30;100.00
4415;BME280;2220;42.670;23.398;2023-07-29T01:17:47;94679.22;;;18.20;100.00
4415;BME280;2220;42.670;23.398;2023-07-29T01:20:15;94661.78;;;18.01;100.00
4415;BME280;2220;42.670;23.398;2023-07-29T01:22:41;94646.84;;;17.88;100.00
4415;BME280;2220;42.670;23.398;2023-07-29T01:25:07;94646.84;;;17.88;100.00
4415;BME280;2220;42.670;23.398;2023-07-29T01:27:33;94646.25;;;17.91;100.00
4415;BME280;2220;42.670;23.398;2023-07-29T01:29:59;94670.84;;;17.86;100.00
4415;BME280;2220;42.670;23.398;2023-07-29T01:37:52;94680.81;;;17.67;100.00
4415;BME280;2220;42.670;23.398;2023-07-29T01:40:18;94688.91;;;17.71;100.00
4415;BME280;2220;42.670;23.398;2023-07-29T01:42:47;94669.81;;;17.65;100.00
4415;BME280;2220;42.670;23.398;2023-07-29T01:45:12;94672.97;;;17.76;100.00
4415;BME280;2220;42.670;23.398;2023-07-29T01:47:37;94689.19;;;17.69;100.00
4415;BME280;2220;42.670;23.398;2023-07-29T01:50:06;94698.34;;;17.72;100.00
4415;BME280;2220;42.670;23.398;2023-07-29T01:52:32;94708.16;;;17.80;100.00
4415;BME280;2220;42.670;23.398;2023-07-29T01:54:57;94713.78;;;17.87;100.00
4415;BME280;2220;42.670;23.398;2023-07-29T01:57:22;94728.09;;;17.95;100.00
4415;BME280;2220;42.670;23.398;2023-07-29T01:59:48;94731.38;;;18.00;100.00
4415;BME280;2220;42.670;23.398;2023-07-29T02:02:13;94734.84;;;18.09;100.00
4415;BME280;2220;42.670;23.398;2023-07-29T02:04:39;94739.59;;;17.99;100.00
4415;BME280;2220;42.670;23.398;2023-07-29T02:07:04;94736.91;;;17.90;100.00
4415;BME280;2220;42.670;23.398;2023-07-29T02:09:30;94733.63;;;17.84;100.00
4415;BME280;2220;42.670;23.398;2023-07-29T02:11:57;94741.34;;;17.81;100.00
4415;BME280;2220;42.670;23.398;2023-07-29T02:14:23;94731.72;;;17.62;100.00
4415;BME280;2220;42.670;23.398;2023-07-29T02:16:48;94730.00;;;17.58;100.00
4415;BME280;2220;42.670;23.398;2023-07-29T02:19:14;94720.91;;;17.64;100.00
4415;BME280;2220;42.670;23.398;2023-07-29T02:21:40;94722.94;;;17.67;100.00
4415;BME280;2220;42.670;23.398;2023-07-29T02:24:05;94728.09;;;17.50;100.00
4415;BME280;2220;42.670;23.398;2023-07-29T02:26:31;94729.81;;;17.54;100.00
4415;BME280;2220;42.670;23.398;2023-07-29T02:28:56;94724.09;;;17.52;100.00
4415;BME280;2220;42.670;23.398;2023-07-29T02:31:23;94720.38;;;17.53;100.00
4415;BME280;2220;42.670;23.398;2023-07-29T02:33:49;94727.06;;;17.59;100.00
4415;BME280;2220;42.670;23.398;2023-07-29T02:36:15;94729.34;;;17.52;100.00
4415;BME280;2220;42.670;23.398;2023-07-29T02:38:41;94720.38;;;17.53;100.00
4415;BME280;2220;42.670;23.398;2023-07-29T02:41:08;94708.53;;;17.42;100.00
4415;BME280;2220;42.670;23.398;2023-07-29T02:43:35;94715.66;;;17.42;100.00
4415;BME280;2220;42.670;23.398;2023-07-29T02:46:01;94712.56;;;17.48;100.00
4415;BME280;2220;42.670;23.398;2023-07-29T02:48:27;94708.22;;;17.44;100.00
4415;BME280;2220;42.670;23.398;2023-07-29T02:50:53;94700.25;;;17.35;100.00
4415;BME280;2220;42.670;23.398;2023-07-29T02:53:19;94709.00;;;17.44;100.00
4415;BME280;2220;42.670;23.398;2023-07-29T02:55:45;94709.94;;;17.48;100.00
4415;BME280;2220;42.670;23.398;2023-07-29T02:58:10;94710.25;;;17.47;100.00
4415;BME280;2220;42.670;23.398;2023-07-29T03:00:36;94712.56;;;17.48;100.00
4415;BME280;2220;42.670;23.398;2023-07-29T03:03:01;94718.72;;;17.57;100.00
4415;BME280;2220;42.670;23.398;2023-07-29T03:05:27;94718.44;;;17.45;100.00
4415;BME280;2220;42.670;23.398;2023-07-29T03:07:53;94682.72;;;17.30;100.00
4415;BME280;2220;42.670;23.398;2023-07-29T03:10:18;94678.44;;;17.34;100.00
4415;BME280;2220;42.670;23.398;2023-07-29T03:12:44;94665.22;;;17.26;100.00
4415;BME280;2220;42.670;23.398;2023-07-29T03:15:09;94646.22;;;17.15;100.00
4415;BME280;2220;42.670;23.398;2023-07-29T03:17:35;94632.13;;;17.11;100.00
4415;BME280;2220;42.670;23.398;2023-07-29T03:20:00;94634.63;;;17.16;100.00
4415;BME280;2220;42.670;23.398;2023-07-29T03:22:26;94615.19;;;17.03;100.00
4415;BME280;2220;42.670;23.398;2023-07-29T03:24:51;94598.75;;;16.98;100.00
4415;BME280;2220;42.670;23.398;2023-07-29T03:27:17;94597.25;;;17.05;100.00
4415;BME280;2220;42.670;23.398;2023-07-29T03:29:42;94590.44;;;17.04;100.00
4415;BME280;2220;42.670;23.398;2023-07-29T03:32:08;94574.53;;;16.87;100.00
4415;BME280;2220;42.670;23.398;2023-07-29T03:34:34;94562.88;;;16.80;100.00
4415;BME280;2220;42.670;23.398;2023-07-29T03:37:00;94561.19;;;16.84;100.00
4415;BME280;2220;42.670;23.398;2023-07-29T03:39:26;94552.66;;;16.78;100.00
4415;BME280;2220;42.670;23.398;2023-07-29T03:41:51;94544.16;;;16.67;100.00
4415;BME280;2220;42.670;23.398;2023-07-29T03:44:17;94522.00;;;16.60;100.00
4415;BME280;2220;42.670;23.398;2023-07-29T03:46:44;94521.50;;;16.71;100.00
4415;BME280;2220;42.670;23.398;2023-07-29T03:49:09;94518.47;;;16.78;100.00
4415;BME280;2220;42.670;23.398;2023-07-29T03:51:35;94516.59;;;16.78;100.00
4415;BME280;2220;42.670;23.398;2023-07-29T03:54:00;94524.25;;;16.89;100.00
4415;BME280;2220;42.670;23.398;2023-07-29T03:56:26;94523.00;;;16.86;100.00
4415;BME280;2220;42.670;23.398;2023-07-29T03:58:52;94514.63;;;16.84;100.00
4415;BME280;2220;42.670;23.398;2023-07-29T04:01:17;94529.41;;;16.94;100.00
4415;BME280;2220;42.670;23.398;2023-07-29T04:03:44;94533.03;;;16.84;100.00
4415;BME280;2220;42.670;23.398;2023-07-29T04:06:11;94509.78;;;16.77;100.00
4415;BME280;2220;42.670;23.398;2023-07-29T04:08:36;94511.75;;;16.72;100.00
4415;BME280;2220;42.670;23.398;2023-07-29T04:11:02;94518.56;;;16.95;100.00
4415;BME280;2220;42.670;23.398;2023-07-29T04:13:27;94548.69;;;17.12;100.00
4415;BME280;2220;42.670;23.398;2023-07-29T04:15:53;94575.09;;;17.29;100.00
4415;BME280;2220;42.670;23.398;2023-07-29T04:18:18;94577.31;;;17.36;100.00
4415;BME280;2220;42.670;23.398;2023-07-29T04:20:44;94593.66;;;17.55;100.00
4415;BME280;2220;42.670;23.398;2023-07-29T04:23:10;94606.41;;;17.61;100.00
4415;BME280;2220;42.670;23.398;2023-07-29T04:25:35;94608.47;;;17.65;100.00
4415;BME280;2220;42.670;23.398;2023-07-29T04:28:00;94625.38;;;17.72;100.00
4415;BME280;2220;42.670;23.398;2023-07-29T04:30:28;94640.50;;;17.89;100.00
4415;BME280;2220;42.670;23.398;2023-07-29T04:32:53;94651.44;;;18.05;100.00
4415;BME280;2220;42.670;23.398;2023-07-29T04:35:19;94667.91;;;18.19;100.00
4415;BME280;2220;42.670;23.398;2023-07-29T04:37:44;94663.72;;;18.18;100.00
4415;BME280;2220;42.670;23.398;2023-07-29T04:40:10;94645.09;;;18.06;100.00
4415;BME280;2220;42.670;23.398;2023-07-29T04:42:36;94649.88;;;18.12;100.00
4415;BME280;2220;42.670;23.398;2023-07-29T04:45:02;94656.91;;;18.17;100.00
4415;BME280;2220;42.670;23.398;2023-07-29T04:47:28;94668.56;;;18.33;100.00
4415;BME280;2220;42.670;23.398;2023-07-29T04:49:53;94675.56;;;18.29;100.00
4415;BME280;2220;42.670;23.398;2023-07-29T04:52:19;94685.63;;;18.36;100.00
4415;BME280;2220;42.670;23.398;2023-07-29T04:54:45;94702.34;;;18.62;100.00
4415;BME280;2220;42.670;23.398;2023-07-29T04:57:10;94707.78;;;18.66;100.00
4415;BME280;2220;42.670;23.398;2023-07-29T04:59:35;94723.34;;;18.85;100.00
4415;BME280;2220;42.670;23.398;2023-07-29T05:02:01;94723.66;;;18.92;100.00
4415;BME280;2220;42.670;23.398;2023-07-29T05:04:26;94742.97;;;19.10;100.00
4415;BME280;2220;42.670;23.398;2023-07-29T05:06:52;94748.25;;;19.18;100.00
4415;BME280;2220;42.670;23.398;2023-07-29T05:09:19;94760.22;;;19.24;100.00
4415;BME280;2220;42.670;23.398;2023-07-29T05:11:45;94770.31;;;19.31;100.00
4415;BME280;2220;42.670;23.398;2023-07-29T05:14:13;94783.38;;;19.45;100.00
4415;BME280;2220;42.670;23.398;2023-07-29T05:16:38;94780.88;;;19.48;100.00
4415;BME280;2220;42.670;23.398;2023-07-29T05:19:04;94782.28;;;19.54;100.00
4415;BME280;2220;42.670;23.398;2023-07-29T05:21:29;94782.50;;;19.58;100.00
4415;BME280;2220;42.670;23.398;2023-07-29T05:23:55;94783.59;;;19.74;100.00
4415;BME280;2220;42.670;23.398;2023-07-29T05:26:21;94775.00;;;19.34;100.00
4415;BME280;2220;42.670;23.398;2023-07-29T05:28:47;94767.53;;;19.27;100.00
4415;BME280;2220;42.670;23.398;2023-07-29T05:31:12;94774.22;;;19.42;100.00
4415;BME280;2220;42.670;23.398;2023-07-29T05:33:37;94766.56;;;19.15;100.00
4415;BME280;2220;42.670;23.398;2023-07-29T05:36:03;94770.28;;;19.14;100.00
4415;BME280;2220;42.670;23.398;2023-07-29T05:38:29;94766.56;;;19.06;100.00
4415;BME280;2220;42.670;23.398;2023-07-29T05:40:54;94770.00;;;19.24;100.00
4415;BME280;2220;42.670;23.398;2023-07-29T05:43:19;94763.34;;;19.18;100.00
4415;BME280;2220;42.670;23.398;2023-07-29T05:45:45;94755.22;;;19.06;100.00
4415;BME280;2220;42.670;23.398;2023-07-29T05:48:10;94759.59;;;19.10;100.00
4415;BME280;2220;42.670;23.398;2023-07-29T05:50:36;94761.94;;;19.29;100.00
4415;BME280;2220;42.670;23.398;2023-07-29T05:53:01;94775.47;;;19.45;100.00
4415;BME280;2220;42.670;23.398;2023-07-29T05:55:27;94768.78;;;19.65;100.00
4415;BME280;2220;42.670;23.398;2023-07-29T05:57:52;94788.88;;;19.74;100.00
4415;BME280;2220;42.670;23.398;2023-07-29T06:00:17;94792.09;;;20.06;100.00
4415;BME280;2220;42.670;23.398;2023-07-29T06:02:43;94794.25;;;20.21;100.00
4415;BME280;2220;42.670;23.398;2023-07-29T06:05:08;94798.25;;;20.36;100.00
4415;BME280;2220;42.670;23.398;2023-07-29T06:07:34;94800.44;;;20.34;100.00
4415;BME280;2220;42.670;23.398;2023-07-29T06:10:00;94803.69;;;20.48;100.00
4415;BME280;2220;42.670;23.398;2023-07-29T06:12:26;94817.28;;;20.76;100.00
4415;BME280;2220;42.670;23.398;2023-07-29T06:14:52;94818.47;;;20.96;100.00
4415;BME280;2220;42.670;23.398;2023-07-29T06:17:17;94822.84;;;21.21;100.00
4415;BME280;2220;42.670;23.398;2023-07-29T06:19:43;94828.66;;;21.44;100.00
4415;BME280;2220;42.670;23.398;2023-07-29T06:22:09;94828.94;;;21.52;100.00
4415;BME280;2220;42.670;23.398;2023-07-29T06:24:35;94829.06;;;21.55;100.00
4415;BME280;2220;42.670;23.398;2023-07-29T06:27:00;94828.44;;;21.58;100.00
4415;BME280;2220;42.670;23.398;2023-07-29T06:29:26;94826.09;;;21.77;100.00
4415;BME280;2220;42.670;23.398;2023-07-29T06:31:51;94836.69;;;21.98;100.00
4415;BME280;2220;42.670;23.398;2023-07-29T06:34:20;94826.19;;;22.02;100.00
4415;BME280;2220;42.670;23.398;2023-07-29T06:36:45;94821.41;;;21.95;100.00
4415;BME280;2220;42.670;23.398;2023-07-29T06:39:10;94821.63;;;21.69;100.00
4415;BME280;2220;42.670;23.398;2023-07-29T06:41:36;94823.09;;;21.79;100.00
4415;BME280;2220;42.670;23.398;2023-07-29T06:44:01;94822.66;;;21.56;100.00
4415;BME280;2220;42.670;23.398;2023-07-29T06:46:27;94802.69;;;21.59;100.00
4415;BME280;2220;42.670;23.398;2023-07-29T06:48:52;94811.06;;;21.82;100.00
4415;BME280;2220;42.670;23.398;2023-07-29T06:51:18;94810.09;;;21.86;100.00
4415;BME280;2220;42.670;23.398;2023-07-29T06:53:43;94822.44;;;22.24;100.00
4415;BME280;2220;42.670;23.398;2023-07-29T06:56:09;94818.19;;;22.11;100.00
4415;BME280;2220;42.670;23.398;2023-07-29T06:58:34;94806.09;;;22.22;100.00
4415;BME280;2220;42.670;23.398;2023-07-29T07:01:00;94818.31;;;22.47;100.00
4415;BME280;2220;42.670;23.398;2023-07-29T07:03:25;94818.00;;;22.61;100.00
4415;BME280;2220;42.670;23.398;2023-07-29T07:05:51;94824.69;;;22.92;100.00
4415;BME280;2220;42.670;23.398;2023-07-29T07:08:16;94826.91;;;23.14;100.00
4415;BME280;2220;42.670;23.398;2023-07-29T07:10:42;94832.56;;;23.37;100.00
4415;BME280;2220;42.670;23.398;2023-07-29T07:13:07;94826.00;;;23.59;100.00
4415;BME280;2220;42.670;23.398;2023-07-29T07:15:33;94836.97;;;23.69;100.00
4415;BME280;2220;42.670;23.398;2023-07-29T07:17:58;94833.28;;;23.74;100.00
4415;BME280;2220;42.670;23.398;2023-07-29T07:20:23;94839.59;;;23.57;100.00
4415;BME280;2220;42.670;23.398;2023-07-29T07:22:49;94840.19;;;23.63;100.00
4415;BME280;2220;42.670;23.398;2023-07-29T07:25:14;94844.13;;;23.81;100.00
4415;BME280;2220;42.670;23.398;2023-07-29T07:27:40;94840.66;;;23.93;100.00
4415;BME280;2220;42.670;23.398;2023-07-29T07:30:06;94835.84;;;23.83;100.00
4415;BME280;2220;42.670;23.398;2023-07-29T07:32:31;94833.19;;;23.70;100.00
4415;BME280;2220;42.670;23.398;2023-07-29T07:34:57;94827.47;;;23.96;100.00
4415;BME280;2220;42.670;23.398;2023-07-29T07:37:22;94836.19;;;24.09;100.00
4415;BME280;2220;42.670;23.398;2023-07-29T07:39:48;94838.19;;;24.28;100.00
4415;BME280;2220;42.670;23.398;2023-07-29T07:42:13;94833.63;;;24.41;100.00
4415;BME280;2220;42.670;23.398;2023-07-29T07:44:39;94829.63;;;24.63;100.00
4415;BME280;2220;42.670;23.398;2023-07-29T07:47:04;94831.88;;;24.92;100.00
4415;BME280;2220;42.670;23.398;2023-07-29T07:49:29;94834.03;;;24.87;100.00
4415;BME280;2220;42.670;23.398;2023-07-29T07:51:55;94834.88;;;24.91;100.00
4415;BME280;2220;42.670;23.398;2023-07-29T07:54:20;94839.59;;;24.97;100.00
4415;BME280;2220;42.670;23.398;2023-07-29T07:56:46;94840.63;;;24.93;100.00
4415;BME280;2220;42.670;23.398;2023-07-29T07:59:11;94830.88;;;25.13;100.00
4415;BME280;2220;42.670;23.398;2023-07-29T08:01:38;94831.19;;;25.27;100.00
4415;BME280;2220;42.670;23.398;2023-07-29T08:04:04;94840.38;;;25.29;98.91
4415;BME280;2220;42.670;23.398;2023-07-29T08:06:30;94834.63;;;25.62;98.86
4415;BME280;2220;42.670;23.398;2023-07-29T08:08:56;94837.81;;;25.68;98.00
4415;BME280;2220;42.670;23.398;2023-07-29T08:11:21;94839.34;;;25.85;98.09
4415;BME280;2220;42.670;23.398;2023-07-29T08:13:47;94839.97;;;25.78;97.09
4415;BME280;2220;42.670;23.398;2023-07-29T08:16:12;94845.13;;;25.71;97.23
4415;BME280;2220;42.670;23.398;2023-07-29T08:18:38;94841.59;;;25.83;96.42
4415;BME280;2220;42.670;23.398;2023-07-29T08:21:03;94831.09;;;25.58;97.02
4415;BME280;2220;42.670;23.398;2023-07-29T08:23:31;94842.56;;;25.94;96.35
4415;BME280;2220;42.670;23.398;2023-07-29T08:25:58;94841.78;;;26.13;94.19
4415;BME280;2220;42.670;23.398;2023-07-29T08:28:31;94841.25;;;26.23;93.59
4415;BME280;2220;42.670;23.398;2023-07-29T08:30:57;94835.19;;;26.26;90.97
4415;BME280;2220;42.670;23.398;2023-07-29T08:33:23;94836.53;;;26.16;89.46
4415;BME280;2220;42.670;23.398;2023-07-29T08:35:48;94830.00;;;26.14;88.62
4415;BME280;2220;42.670;23.398;2023-07-29T08:38:14;94826.97;;;25.96;91.24
4415;BME280;2220;42.670;23.398;2023-07-29T08:43:32;94830.63;;;26.27;89.52
4415;BME280;2220;42.670;23.398;2023-07-29T08:46:00;94834.25;;;26.38;88.01
4415;BME280;2220;42.670;23.398;2023-07-29T08:48:33;94827.31;;;26.53;87.54
4415;BME280;2220;42.670;23.398;2023-07-29T08:51:03;94820.25;;;26.64;86.37
4415;BME280;2220;42.670;23.398;2023-07-29T08:53:30;94823.84;;;26.71;83.83
4415;BME280;2220;42.670;23.398;2023-07-29T08:55:56;94816.38;;;27.03;84.26
4415;BME280;2220;42.670;23.398;2023-07-29T08:58:23;94813.31;;;27.28;83.70
4415;BME280;2220;42.670;23.398;2023-07-29T09:00:49;94810.78;;;27.39;82.39
4415;BME280;2220;42.670;23.398;2023-07-29T09:03:15;94806.81;;;27.29;81.88
4415;BME280;2220;42.670;23.398;2023-07-29T09:05:41;94806.22;;;27.43;78.84
4415;BME280;2220;42.670;23.398;2023-07-29T09:08:06;94814.50;;;27.34;79.19
4415;BME280;2220;42.670;23.398;2023-07-29T09:10:36;94811.38;;;27.55;79.09
4415;BME280;2220;42.670;23.398;2023-07-29T09:13:03;94812.00;;;27.71;78.27
4415;BME280;2220;42.670;23.398;2023-07-29T09:15:29;94808.94;;;27.69;79.41
4415;BME280;2220;42.670;23.398;2023-07-29T09:17:58;94807.03;;;27.70;77.73
4415;BME280;2220;42.670;23.398;2023-07-29T09:20:27;94803.88;;;27.94;77.53
4415;BME280;2220;42.670;23.398;2023-07-29T09:22:58;94794.53;;;27.81;75.68
4415;BME280;2220;42.670;23.398;2023-07-29T09:25:30;94798.28;;;28.06;76.37
4415;BME280;2220;42.670;23.398;2023-07-29T09:27:59;94789.38;;;27.99;74.95
4415;BME280;2220;42.670;23.398;2023-07-29T09:30:26;94790.25;;;28.06;69.34
4415;BME280;2220;42.670;23.398;2023-07-29T09:32:58;94787.47;;;28.29;67.17
4415;BME280;2220;42.670;23.398;2023-07-29T09:35:27;94783.09;;;28.18;65.11
4415;BME280;2220;42.670;23.398;2023-07-29T09:37:53;94780.31;;;28.40;67.22
4415;BME280;2220;42.670;23.398;2023-07-29T09:40:19;94782.50;;;28.31;66.68
4415;BME280;2220;42.670;23.398;2023-07-29T09:42:52;94784.09;;;28.36;65.28
4415;BME280;2220;42.670;23.398;2023-07-29T09:45:25;94780.34;;;28.44;63.89
4415;BME280;2220;42.670;23.398;2023-07-29T09:47:52;94776.88;;;28.40;64.47
4415;BME280;2220;42.670;23.398;2023-07-29T09:50:18;94777.88;;;28.69;64.23
4415;BME280;2220;42.670;23.398;2023-07-29T09:52:44;94766.84;;;28.74;65.16
4415;BME280;2220;42.670;23.398;2023-07-29T09:55:12;94758.19;;;28.95;62.76
4415;BME280;2220;42.670;23.398;2023-07-29T09:57:37;94771.00;;;29.16;61.59
4415;BME280;2220;42.670;23.398;2023-07-29T10:00:04;94766.88;;;29.33;62.01
4415;BME280;2220;42.670;23.398;2023-07-29T10:02:39;94761.19;;;29.41;61.97
4415;BME280;2220;42.670;23.398;2023-07-29T10:05:06;94764.03;;;29.73;59.81
4415;BME280;2220;42.670;23.398;2023-07-29T10:07:33;94771.41;;;29.91;60.58
4415;BME280;2220;42.670;23.398;2023-07-29T10:10:01;94767.22;;;30.04;60.35
4415;BME280;2220;42.670;23.398;2023-07-29T10:12:27;94766.34;;;29.75;60.77
4415;BME280;2220;42.670;23.398;2023-07-29T10:14:55;94757.97;;;29.87;59.82
4415;BME280;2220;42.670;23.398;2023-07-29T10:17:20;94757.63;;;30.06;58.77
4415;BME280;2220;42.670;23.398;2023-07-29T10:19:47;94748.88;;;30.10;58.01
4415;BME280;2220;42.670;23.398;2023-07-29T10:22:14;94753.75;;;29.90;58.58
4415;BME280;2220;42.670;23.398;2023-07-29T10:24:42;94736.44;;;29.73;59.24
4415;BME280;2220;42.670;23.398;2023-07-29T10:27:11;94740.00;;;30.05;58.19
4415;BME280;2220;42.670;23.398;2023-07-29T10:29:38;94734.38;;;29.45;56.30
4415;BME280;2220;42.670;23.398;2023-07-29T10:32:07;94737.13;;;29.59;56.41
4415;BME280;2220;42.670;23.398;2023-07-29T10:34:34;94723.72;;;29.59;56.88
4415;BME280;2220;42.670;23.398;2023-07-29T10:37:01;94720.47;;;29.21;56.75
4415;BME280;2220;42.670;23.398;2023-07-29T10:39:27;94719.06;;;29.49;55.22
4415;BME280;2220;42.670;23.398;2023-07-29T10:47:13;94712.06;;;30.17;55.45
4415;BME280;2220;42.670;23.398;2023-07-29T10:49:43;94718.22;;;30.53;54.04
4415;BME280;2220;42.670;23.398;2023-07-29T10:52:08;94710.53;;;30.45;54.94
4415;BME280;2220;42.670;23.398;2023-07-29T10:54:47;94710.91;;;30.36;54.41
4415;BME280;2220;42.670;23.398;2023-07-29T10:57:30;94700.16;;;30.22;53.16
4415;BME280;2220;42.670;23.398;2023-07-29T10:59:56;94698.25;;;30.61;51.13
4415;BME280;2220;42.670;23.398;2023-07-29T11:02:29;94697.13;;;30.91;51.25
4415;BME280;2220;42.670;23.398;2023-07-29T11:04:55;94697.91;;;30.74;52.07
4415;BME280;2220;42.670;23.398;2023-07-29T11:07:22;94690.56;;;30.92;51.51
4415;BME280;2220;42.670;23.398;2023-07-29T11:09:56;94671.41;;;30.76;53.37
4415;BME280;2220;42.670;23.398;2023-07-29T11:12:38;94687.47;;;31.01;52.52
4415;BME280;2220;42.670;23.398;2023-07-29T11:15:11;94682.84;;;31.23;52.47
4415;BME280;2220;42.670;23.398;2023-07-29T11:17:53;94683.63;;;31.23;51.67
4415;BME280;2220;42.670;23.398;2023-07-29T11:20:21;94685.19;;;31.06;50.92
4415;BME280;2220;42.670;23.398;2023-07-29T11:22:47;94680.59;;;30.78;51.84
4415;BME280;2220;42.670;23.398;2023-07-29T11:25:15;94677.53;;;30.83;51.29
4415;BME280;2220;42.670;23.398;2023-07-29T11:27:41;94686.28;;;31.19;51.20
4415;BME280;2220;42.670;23.398;2023-07-29T11:30:09;94685.88;;;31.39;47.77
4415;BME280;2220;42.670;23.398;2023-07-29T11:32:36;94685.13;;;31.38;47.20
4415;BME280;2220;42.670;23.398;2023-07-29T11:35:03;94675.44;;;31.52;46.45
4415;BME280;2220;42.670;23.398;2023-07-29T11:37:29;94672.25;;;31.85;45.00
4415;BME280;2220;42.670;23.398;2023-07-29T11:39:54;94676.63;;;32.72;43.71
4415;BME280;2220;42.670;23.398;2023-07-29T11:42:20;94679.78;;;33.08;42.27
4415;BME280;2220;42.670;23.398;2023-07-29T11:44:46;94673.16;;;33.17;42.33
4415;BME280;2220;42.670;23.398;2023-07-29T11:47:12;94666.16;;;33.23;42.36
4415;BME280;2220;42.670;23.398;2023-07-29T11:49:39;94664.63;;;33.22;43.03
4415;BME280;2220;42.670;23.398;2023-07-29T11:52:09;94663.25;;;33.06;43.01
4415;BME280;2220;42.670;23.398;2023-07-29T11:54:38;94663.41;;;32.89;43.56
4415;BME280;2220;42.670;23.398;2023-07-29T11:57:06;94660.22;;;33.35;42.60
4415;BME280;2220;42.670;23.398;2023-07-29T11:59:34;94654.38;;;33.06;44.31
4415;BME280;2220;42.670;23.398;2023-07-29T12:02:00;94660.00;;;33.19;41.90
4415;BME280;2220;42.670;23.398;2023-07-29T12:04:27;94658.53;;;33.14;42.20
4415;BME280;2220;42.670;23.398;2023-07-29T12:06:53;94652.03;;;32.67;41.98
4415;BME280;2220;42.670;23.398;2023-07-29T12:09:18;94655.78;;;32.35;42.71
4415;BME280;2220;42.670;23.398;2023-07-29T12:11:44;94648.13;;;32.71;43.09
4415;BME280;2220;42.670;23.398;2023-07-29T12:14:10;94633.16;;;32.67;42.14
4415;BME280;2220;42.670;23.398;2023-07-29T12:16:43;94645.41;;;32.34;42.46
4415;BME280;2220;42.670;23.398;2023-07-29T12:19:11;94636.19;;;32.24;42.62
4415;BME280;2220;42.670;23.398;2023-07-29T12:21:37;94640.78;;;32.34;43.58
4415;BME280;2220;42.670;23.398;2023-07-29T12:24:03;94628.25;;;32.54;44.80
4415;BME280;2220;42.670;23.398;2023-07-29T12:26:29;94635.16;;;32.59;43.72
4415;BME280;2220;42.670;23.398;2023-07-29T12:28:54;94633.94;;;32.67;41.96
4415;BME280;2220;42.670;23.398;2023-07-29T12:31:21;94629.53;;;32.43;41.28
4415;BME280;2220;42.670;23.398;2023-07-29T12:33:47;94619.88;;;32.49;40.17
4415;BME280;2220;42.670;23.398;2023-07-29T12:36:12;94627.03;;;32.63;40.54
4415;BME280;2220;42.670;23.398;2023-07-29T12:38:38;94629.25;;;32.71;40.28
4415;BME280;2220;42.670;23.398;2023-07-29T12:41:03;94621.56;;;32.70;40.15
4415;BME280;2220;42.670;23.398;2023-07-29T12:43:29;94624.72;;;32.65;39.86
4415;BME280;2220;42.670;23.398;2023-07-29T12:45:54;94615.88;;;32.61;40.12
4415;BME280;2220;42.670;23.398;2023-07-29T12:48:21;94616.53;;;32.34;41.47
4415;BME280;2220;42.670;23.398;2023-07-29T12:50:47;94610.69;;;32.39;41.04
4415;BME280;2220;42.670;23.398;2023-07-29T12:53:12;94623.63;;;32.59;41.53
4415;BME280;2220;42.670;23.398;2023-07-29T12:55:38;94618.94;;;32.63;39.35
4415;BME280;2220;42.670;23.398;2023-07-29T12:58:04;94620.69;;;32.39;39.44
4415;BME280;2220;42.670;23.398;2023-07-29T13:00:29;94610.03;;;32.69;39.30
4415;BME280;2220;42.670;23.398;2023-07-29T13:02:55;94606.94;;;32.71;39.64
4415;BME280;2220;42.670;23.398;2023-07-29T13:05:21;94610.66;;;32.80;39.85
4415;BME280;2220;42.670;23.398;2023-07-29T13:07:46;94623.91;;;32.68;40.10
4415;BME280;2220;42.670;23.398;2023-07-29T13:10:12;94631.41;;;32.91;39.84
4415;BME280;2220;42.670;23.398;2023-07-29T13:12:38;94616.97;;;33.08;39.22
4415;BME280;2220;42.670;23.398;2023-07-29T13:15:04;94628.22;;;33.33;39.08
4415;BME280;2220;42.670;23.398;2023-07-29T13:17:30;94614.50;;;33.55;37.83
4415;BME280;2220;42.670;23.398;2023-07-29T13:19:56;94613.00;;;33.50;38.48